TimeMDT,TemperatureF,Dew PointF,Humidity,Sea Level PressureIn,VisibilityMPH,Wind Direction,Wind SpeedMPH,Gust SpeedMPH,PrecipitationIn,Events,Conditions,WindDirDegrees,DateUTC
12:00 AM,35,34,94,,,South,10.4,,,,,170,2012-10-12 06:00:00
12:00 AM,34.9,34.0,97,-9999,-9999.0,South,10.4,-,N/A,,Unknown,170,2012-10-12 06:00:00
1:00 AM,34.0,33.4,98,-9999,-9999.0,SSE,4.6,-,N/A,,Unknown,160,2012-10-12 07:00:00
2:00 AM,33.3,32.9,99,-9999,-9999.0,SE,3.5,-,N/A,,Unknown,140,2012-10-12 08:00:00
3:00 AM,31.5,31.6,100,-9999,-9999.0,South,5.8,-,N/A,,Unknown,170,2012-10-12 09:00:00
4:00 AM,34.3,33.6,97,-9999,-9999.0,South,2.3,-,N/A,,Unknown,180,2012-10-12 10:00:00
5:00 AM,31.3,31.8,100,-9999,-9999.0,SW,4.6,-,N/A,,Unknown,230,2012-10-12 11:00:00
6:00 AM,34,33,96,,,South,2.3,,,,,170,2012-10-12 12:00:00
6:00 AM,33.8,33.3,98,-9999,-9999.0,South,2.3,-,N/A,,Unknown,170,2012-10-12 12:00:00
7:00 AM,34.2,33.1,96,-9999,-9999.0,NE,1.2,-,N/A,,Unknown,40,2012-10-12 13:00:00
8:00 AM,33.8,33.3,98,-9999,-9999.0,North,3.5,-,N/A,,Unknown,10,2012-10-12 14:00:00
11:00 AM,41.5,39.7,93,-9999,-9999.0,North,3.5,-,N/A,,Unknown,10,2012-10-12 17:00:00
12:00 PM,41,40,93,,,NNE,2.3,,,,,20,2012-10-12 18:00:00
12:00 PM,41.2,39.7,95,-9999,-9999.0,NNE,2.3,-,N/A,,Unknown,20,2012-10-12 18:00:00
1:00 PM,43.2,41.2,93,-9999,-9999.0,North,5.8,-,N/A,,Unknown,10,2012-10-12 19:00:00
2:00 PM,47.7,41.0,78,-9999,-9999.0,North,8.1,-,N/A,,Unknown,350,2012-10-12 20:00:00
4:00 PM,68.7,35.1,29,-9999,-9999.0,West,11.5,-,N/A,,Unknown,270,2012-10-12 22:00:00
5:00 PM,66.6,35.6,32,-9999,-9999.0,West,9.2,-,N/A,,Unknown,270,2012-10-12 23:00:00
6:00 PM,61,36,28,,,West,8.1,,,,,280,2012-10-13 00:00:00
6:00 PM,61.3,36.3,39,-9999,-9999.0,West,8.1,-,N/A,,Unknown,280,2012-10-13 00:00:00
7:00 PM,51.6,38.7,61,-9999,-9999.0,SW,8.1,-,N/A,,Unknown,220,2012-10-13 01:00:00
8:00 PM,45.5,39.4,79,-9999,-9999.0,NNE,6.9,-,N/A,,Unknown,20,2012-10-13 02:00:00
9:00 PM,41.7,38.3,88,-9999,-9999.0,North,8.1,-,N/A,,Unknown,350,2012-10-13 03:00:00
10:00 PM,40.6,37.2,88,-9999,-9999.0,NNW,6.9,-,N/A,,Unknown,340,2012-10-13 04:00:00
11:00 PM,37.4,35.8,94,-9999,-9999.0,NW,6.9,-,N/A,,Unknown,310,2012-10-13 05:00:00